Time;durP1;ratioP1;P1;durP2;ratioP2;P2;SDS_P1;SDS_P2;PMS_P1;PMS_P2;Temp;Humidity;BMP_temperature;BMP_pressure;BME280_temperature;BME280_humidity;BME280_pressure;Samples;Min_cycle;Max_cycle;Signal;HPM_P1;HPM_P2
2023/02/27 13:29:22;;;;;;;;;;;;;;;;;;5110088;27;20378;-79
2023/02/27 13:31:48;;;;;;;;;;;;;;;;;;5105150;28;20567;-80
2023/02/27 13:34:13;;;;;;;;;;;;;;;;;;5109517;28;19908;-80
2023/02/27 13:36:39;;;;;;;;;;;;;;;;;;5107722;28;20003;-80
2023/02/27 13:39:04;;;;;;;;;;;;;;;;;;5108487;28;19956;-79
2023/02/27 13:41:34;;;;;;;;;;;;;;;;;;5105628;28;19943;-79
2023/02/27 13:44:00;;;;;;;;;;;;;;;;;;5108727;28;19916;-79
2023/02/27 13:46:25;;;;;;;;;;;;;;;;;;5091594;28;19909;-79
2023/02/27 13:48:53;;;;;;;;;;;;;;;;;;5105066;28;20027;-80
2023/02/27 13:51:18;;;;;;;;;;;;;;;;;;5113955;28;20340;-79
2023/02/27 13:53:43;;;;;;;;;;;;;;;;;;5096182;28;20006;-80
2023/02/27 13:56:09;;;;;;;;;;;;;;;;;;5121712;28;20072;-80
2023/02/27 13:58:34;;;;;;;;;;;;;;;;;;5121970;27;19909;-81
2023/02/27 14:00:59;;;;;;;;;;;;;;;;;;5121066;27;20445;-80
2023/02/27 14:03:24;;;;;;;;;;;;;;;;;;5128461;27;19913;-82
2023/02/27 14:05:49;;;;;;;;;;;;;;;;;;5099975;28;19912;-82
2023/02/27 14:08:15;;;;;;;;;;;;;;;;;;5090670;28;19913;-81
2023/02/27 14:10:40;;;;;;;;;;;;;;;;;;5103789;28;19934;-80
2023/02/27 14:13:05;;;;;;;;;;;;;;;;;;5100808;28;19966;-80
2023/02/27 14:15:30;;;;;;;;;;;;;;;;;;5103019;28;19999;-81
2023/02/27 14:17:55;;;;;;;;;;;;;;;;;;5121511;28;19912;-81
2023/02/27 14:20:27;;;;;;;;;;;;;;;;;;5106474;28;19908;-79
2023/02/27 14:22:52;;;;;;;;;;;;;;;;;;5110858;27;19916;-82
2023/02/27 14:25:18;;;;;;;;;;;;;;;;;;5130608;27;19923;-80
2023/02/27 14:27:43;;;;;;;;;;;;;;;;;;5093076;28;19965;-80
2023/02/27 14:30:08;;;;;;;;;;;;;;;;;;5101774;28;20263;-80
2023/02/27 14:32:33;;;;;;;;;;;;;;;;;;5093952;28;19916;-80
2023/02/27 14:34:58;;;;;;;;;;;;;;;;;;5090614;28;20235;-80
2023/02/27 14:37:24;;;;;;;;;;;;;;;;;;5096557;28;19962;-81
2023/02/27 14:39:50;;;;;;;;;;;;;;;;;;5095704;28;19913;-81
2023/02/27 14:42:15;;;;;;;;;;;;;;;;;;5115028;27;19920;-80
2023/02/27 14:44:42;;;;;;;;;;;;;;;;;;5080974;28;19924;-80
2023/02/27 14:47:07;;;;;;;;;;;;;;;;;;5082736;28;19918;-79
2023/02/27 14:49:32;;;;;;;;;;;;;;;;;;5080779;28;19912;-80
2023/02/27 14:51:57;;;;;;;;;;;;;;;;;;5090417;28;19924;-79
2023/02/27 14:54:22;;;;;;;;;;;;;;;;;;5079391;28;20375;-79
2023/02/27 14:56:48;;;;;;;;;;;;;;;;;;5089107;28;20017;-80
2023/02/27 14:59:13;;;;;;;;;;;;;;;;;;5085611;28;19916;-79
2023/02/27 15:01:38;;;;;;;;;;;;;;;;;;5106721;27;19912;-85
2023/02/27 15:04:03;;;;;;;;;;;;;;;;;;5114249;27;19919;-81
2023/02/27 15:06:28;;;;;;;;;;;;;;;;;;5097627;28;20341;-81
2023/02/27 15:08:53;;;;;;;;;;;;;;;;;;5093397;28;19923;-82
2023/02/27 15:11:18;;;;;;;;;;;;;;;;;;5098558;27;19927;-81
2023/02/27 15:13:44;;;;;;;;;;;;;;;;;;5109580;27;19912;-82
2023/02/27 15:16:09;;;;;;;;;;;;;;;;;;5083166;28;19916;-80
2023/02/27 15:18:34;;;;;;;;;;;;;;;;;;5082594;28;20398;-82
2023/02/27 15:20:59;;;;;;;;;;;;;;;;;;5080424;28;19936;-84
2023/02/27 15:23:24;;;;;;;;;;;;;;;;;;5089994;28;20336;-84
2023/02/27 15:25:50;;;;;;;;;;;;;;;;;;5086730;28;19912;-81
2023/02/27 15:28:15;;;;;;;;;;;;;;;;;;5088678;28;20382;-82
2023/02/27 15:30:40;;;;;;;;;;;;;;;;;;5073614;28;19917;-83
2023/02/27 15:33:05;;;;;;;;;;;;;;;;;;5090165;28;19919;-83
2023/02/27 15:35:30;;;;;;;;;;;;;;;;;;5080097;28;19920;-83
2023/02/27 15:37:56;;;;;;;;;;;;;;;;;;5087255;28;19919;-83
2023/02/27 15:40:21;;;;;;;;;;;;;;;;;;5078523;28;19916;-83
2023/02/27 15:42:46;;;;;;;;;;;;;;;;;;5114972;27;20011;-82
2023/02/27 15:45:11;;;;;;;;;;;;;;;;;;5109569;27;19932;-83
2023/02/27 15:47:36;;;;;;;;;;;;;;;;;;5086416;28;20287;-81
2023/02/27 15:50:01;;;;;;;;;;;;;;;;;;5110864;27;19959;-82
2023/02/27 15:52:27;;;;;;;;;;;;;;;;;;5078027;28;19916;-80
2023/02/27 15:54:52;;;;;;;;;;;;;;;;;;5090319;28;19916;-81
2023/02/27 15:57:17;;;;;;;;;;;;;;;;;;5074336;28;19908;-81
2023/02/27 15:59:42;;;;;;;;;;;;;;;;;;5073637;28;19913;-81
2023/02/27 16:02:08;;;;;;;;;;;;;;;;;;5084461;28;19920;-81
2023/02/27 16:04:34;;;;;;;;;;;;;;;;;;5101964;28;19934;-81
2023/02/27 16:06:59;;;;;;;;;;;;;;;;;;5092374;28;19999;-82
2023/02/27 16:09:25;;;;;;;;;;;;;;;;;;5088588;28;19999;-81
2023/02/27 16:11:50;;;;;;;;;;;;;;;;;;5087360;28;20286;-82
2023/02/27 16:14:15;;;;;;;;;;;;;;;;;;5085898;28;19982;-82
2023/02/27 16:16:40;;;;;;;;;;;;;;;;;;5084319;28;20363;-82
2023/02/27 16:19:06;;;;;;;;;;;;;;;;;;5111267;27;19931;-82
2023/02/27 16:21:32;;;;;;;;;;;;;;;;;;5079611;28;20272;-82
2023/02/27 16:23:57;;;;;;;;;;;;;;;;;;5106406;28;19912;-82
2023/02/27 16:26:22;;;;;;;;;;;;;;;;;;5075460;28;20321;-81
2023/02/27 16:28:47;;;;;;;;;;;;;;;;;;5086712;28;19969;-81
2023/02/27 16:31:12;;;;;;;;;;;;;;;;;;5086956;28;19923;-81
2023/02/27 16:33:38;;;;;;;;;;;;;;;;;;5091913;28;19927;-81
2023/02/27 16:36:09;;;;;;;;;;;;;;;;;;5115430;27;19912;-81
2023/02/27 16:38:37;;;;;;;;;;;;;;;;;;5077427;28;19994;-82
2023/02/27 16:41:02;;;;;;;;;;;;;;;;;;5077055;28;20051;-83
2023/02/27 16:43:27;;;;;;;;;;;;;;;;;;5106634;27;20011;-83
2023/02/27 16:46:05;;;;;;;;;;;;;;;;;;5089882;28;19913;-82
2023/02/27 16:48:30;;;;;;;;;;;;;;;;;;5082332;28;19916;-83
2023/02/27 16:50:55;;;;;;;;;;;;;;;;;;5083359;28;19912;-83
2023/02/27 16:53:20;;;;;;;;;;;;;;;;;;5082694;28;19908;-82
2023/02/27 16:55:45;;;;;;;;;;;;;;;;;;5080168;28;20385;-83
2023/02/27 16:58:11;;;;;;;;;;;;;;;;;;5075388;28;19908;-83
2023/02/27 17:00:36;;;;;;;;;;;;;;;;;;5073615;28;19912;-83
2023/02/27 17:03:04;;;;;;;;;;;;;;;;;;5081894;28;20289;-82
2023/02/27 17:05:29;;;;;;;;;;;;;;;;;;5088063;28;20325;-81
2023/02/27 17:07:54;;;;;;;;;;;;;;;;;;5087580;28;19916;-82
2023/02/27 17:10:20;;;;;;;;;;;;;;;;;;5083297;28;20397;-83
2023/02/27 17:12:46;;;;;;;;;;;;;;;;;;5083037;28;19938;-82
2023/02/27 17:15:12;;;;;;;;;;;;;;;;;;5082288;28;20396;-83
2023/02/27 17:17:37;;;;;;;;;;;;;;;;;;5095804;28;19912;-82
2023/02/27 17:20:06;;;;;;;;;;;;;;;;;;5072948;28;19918;-81
2023/02/27 17:22:31;;;;;;;;;;;;;;;;;;5082723;28;20036;-82
2023/02/27 17:24:56;;;;;;;;;;;;;;;;;;5079259;28;19966;-89
2023/02/27 17:27:21;;;;;;;;;;;;;;;;;;5073168;28;19924;-83
2023/02/27 17:29:46;;;;;;;;;;;;;;;;;;5079206;28;19913;-84
2023/02/27 17:32:11;;;;;;;;;;;;;;;;;;5114911;28;19916;-83
2023/02/27 17:34:36;;;;;;;;;;;;;;;;;;5115625;28;19966;-83
2023/02/27 17:37:02;;;;;;;;;;;;;;;;;;5080487;28;20286;-85
2023/02/27 17:39:27;;;;;;;;;;;;;;;;;;5078739;28;20015;-83
2023/02/27 17:41:53;;;;;;;;;;;;;;;;;;5109466;28;20358;-83
2023/02/27 17:44:18;;;;;;;;;;;;;;;;;;5082099;28;19982;-85
2023/02/27 17:46:43;;;;;;;;;;;;;;;;;;5077426;28;19916;-83
2023/02/27 17:49:08;;;;;;;;;;;;;;;;;;5084664;28;19916;-83
2023/02/27 17:51:34;;;;;;;;;;;;;;;;;;5088742;28;19946;-85
2023/02/27 17:53:59;;;;;;;;;;;;;;;;;;5075049;28;19919;-84
2023/02/27 17:56:24;;;;;;;;;;;;;;;;;;5088733;28;20102;-85
2023/02/27 17:58:50;;;;;;;;;;;;;;;;;;5082855;28;20479;-84
2023/02/27 18:01:15;;;;;;;;;;;;;;;;;;5078109;28;20359;-83
2023/02/27 18:03:42;;;;;;;;;;;;;;;;;;5076876;28;20382;-85
2023/02/27 18:06:08;;;;;;;;;;;;;;;;;;5097486;28;20256;-84
2023/02/27 18:08:36;;;;;;;;;;;;;;;;;;5082024;28;19988;-84
2023/02/27 18:16:29;;;;;;;;;;;;;;;;;;5074180;22;19932;-78
2023/02/27 18:18:54;;;;;;;;;;;;;;;;;;5064782;28;19912;-77
2023/02/27 18:21:19;;;;;;;;;;;;;;;;;;5070116;28;20019;-79
2023/02/27 18:23:45;;;;;;;;;;;;;;;;;;5069599;28;19920;-78
2023/02/27 18:26:10;;;;;;;;;;;;;;;;;;5068577;28;20507;-79
2023/02/27 18:28:35;;;;;;;;;;;;;;;;;;5067874;28;19920;-84
2023/02/27 18:31:00;;;;;;;;;;;;;;;;;;5068054;28;19924;-83
2023/02/27 18:33:26;;;;;;;;;;;;;;;;;;5061725;28;20439;-79
2023/02/27 18:35:51;;;;;;;;;;;;;;;;;;5069674;28;20369;-81
2023/02/27 18:38:16;;;;;;;;;;;;;;;;;;5064714;28;19948;-79
2023/02/27 18:40:41;;;;;;;;;;;;;;;;;;5068762;28;19913;-80
2023/02/27 18:43:06;;;;;;;;;;;;;;;;;;5065063;28;19972;-80
2023/02/27 18:45:32;;;;;;;;;;;;;;;;;;5070021;28;20406;-80
2023/02/27 18:47:57;;;;;;;;;;;;;;;;;;5062292;28;19920;-81
2023/02/27 18:50:22;;;;;;;;;;;;;;;;;;5063971;28;20380;-81
2023/02/27 18:52:48;;;;;;;;;;;;;;;;;;5068919;28;20368;-79
2023/02/27 18:55:14;;;;;;;;;;;;;;;;;;5071587;28;19995;-83
2023/02/27 18:57:39;;;;;;;;;;;;;;;;;;5071969;28;19927;-82
2023/02/27 19:00:04;;;;;;;;;;;;;;;;;;5065940;28;19920;-80
2023/02/27 19:02:29;;;;;;;;;;;;;;;;;;5063361;28;19958;-78
2023/02/27 19:04:57;;;;;;;;;;;;;;;;;;5067617;28;20089;-78
2023/02/27 19:07:24;;;;;;;;;;;;;;;;;;5061208;28;19920;-80
2023/02/27 19:09:49;;;;;;;;;;;;;;;;;;5065126;28;19913;-80
2023/02/27 19:12:14;;;;;;;;;;;;;;;;;;5058091;28;20265;-77
2023/02/27 19:14:39;;;;;;;;;;;;;;;;;;5068160;28;19959;-81
2023/02/27 19:17:04;;;;;;;;;;;;;;;;;;5064193;28;19912;-78
2023/02/27 19:19:29;;;;;;;;;;;;;;;;;;5065299;28;19913;-77
2023/02/27 19:21:55;;;;;;;;;;;;;;;;;;5068008;28;19957;-78
2023/02/27 19:24:20;;;;;;;;;;;;;;;;;;5061126;28;20308;-78
2023/02/27 19:26:46;;;;;;;;;;;;;;;;;;5065463;28;20373;-78
2023/02/27 19:29:11;;;;;;;;;;;;;;;;;;5062206;28;19931;-78
2023/02/27 19:31:36;;;;;;;;;;;;;;;;;;5066602;28;20376;-79
2023/02/27 19:34:01;;;;;;;;;;;;;;;;;;5066410;28;20018;-78
2023/02/27 19:36:26;;;;;;;;;;;;;;;;;;5061400;28;19916;-78
2023/02/27 19:38:51;;;;;;;;;;;;;;;;;;5062165;28;19917;-78
2023/02/27 19:41:17;;;;;;;;;;;;;;;;;;5060850;28;20016;-78
2023/02/27 19:43:42;;;;;;;;;;;;;;;;;;5060565;28;20022;-78
2023/02/27 19:46:07;;;;;;;;;;;;;;;;;;5063420;28;20292;-78
2023/02/27 19:48:32;;;;;;;;;;;;;;;;;;5064492;28;19916;-78
2023/02/27 19:50:57;;;;;;;;;;;;;;;;;;5066627;28;19913;-78
2023/02/27 19:53:25;;;;;;;;;;;;;;;;;;5068278;28;20359;-79
2023/02/27 19:55:50;;;;;;;;;;;;;;;;;;5064691;28;20405;-78
2023/02/27 19:58:15;;;;;;;;;;;;;;;;;;5065314;28;19909;-78
2023/02/27 20:00:40;;;;;;;;;;;;;;;;;;5060412;28;22158;-80
2023/02/27 20:03:05;;;;;;;;;;;;;;;;;;5058973;28;19956;-80
2023/02/27 20:05:30;;;;;;;;;;;;;;;;;;5065283;28;20696;-78
2023/02/27 20:07:56;;;;;;;;;;;;;;;;;;5059615;28;20369;-76
2023/02/27 20:10:21;;;;;;;;;;;;;;;;;;5060985;28;20011;-75
2023/02/27 20:12:46;;;;;;;;;;;;;;;;;;5061477;28;19920;-76
2023/02/27 20:15:11;;;;;;;;;;;;;;;;;;5066876;28;19916;-77
2023/02/27 20:17:37;;;;;;;;;;;;;;;;;;5065664;28;19921;-78
2023/02/27 20:20:03;;;;;;;;;;;;;;;;;;5065496;28;19915;-79
2023/02/27 20:22:28;;;;;;;;;;;;;;;;;;5066764;28;19927;-77
2023/02/27 20:24:53;;;;;;;;;;;;;;;;;;5062187;28;19916;-78
2023/02/27 20:27:19;;;;;;;;;;;;;;;;;;5056864;28;19951;-77
2023/02/27 20:29:44;;;;;;;;;;;;;;;;;;5063585;28;19921;-77
2023/02/27 20:32:09;;;;;;;;;;;;;;;;;;5065528;28;20394;-77
2023/02/27 20:34:34;;;;;;;;;;;;;;;;;;5069548;28;19959;-77
2023/02/27 20:37:00;;;;;;;;;;;;;;;;;;5067430;28;20170;-77
2023/02/27 20:39:26;;;;;;;;;;;;;;;;;;5069564;28;19920;-78
2023/02/27 20:41:51;;;;;;;;;;;;;;;;;;5061994;28;19921;-78
2023/02/27 20:44:17;;;;;;;;;;;;;;;;;;5067047;28;20349;-78
2023/02/27 20:46:42;;;;;;;;;;;;;;;;;;5064644;28;19916;-78
2023/02/27 20:49:07;;;;;;;;;;;;;;;;;;5065769;28;20304;-79
2023/02/27 20:51:35;;;;;;;;;;;;;;;;;;5059832;28;19921;-78
2023/02/27 20:54:00;;;;;;;;;;;;;;;;;;5056809;28;20004;-78
2023/02/27 20:56:25;;;;;;;;;;;;;;;;;;5059216;28;20007;-78
2023/02/27 20:58:51;;;;;;;;;;;;;;;;;;5065243;28;19913;-78
2023/02/27 21:01:16;;;;;;;;;;;;;;;;;;5063235;28;20004;-77
2023/02/27 21:03:41;;;;;;;;;;;;;;;;;;5060907;28;20476;-78
2023/02/27 21:06:06;;;;;;;;;;;;;;;;;;5059414;28;19913;-78
2023/02/27 21:08:31;;;;;;;;;;;;;;;;;;5061463;28;19978;-78
2023/02/27 21:10:59;;;;;;;;;;;;;;;;;;5061167;28;19920;-79
2023/02/27 21:13:24;;;;;;;;;;;;;;;;;;5052845;28;19916;-78
2023/02/27 21:15:49;;;;;;;;;;;;;;;;;;5065704;28;19943;-78
2023/02/27 21:18:14;;;;;;;;;;;;;;;;;;5066430;28;20023;-78
2023/02/27 21:20:40;;;;;;;;;;;;;;;;;;5065428;28;19920;-77
2023/02/27 21:23:05;;;;;;;;;;;;;;;;;;5067805;28;19920;-77
2023/02/27 21:25:30;;;;;;;;;;;;;;;;;;5070213;28;19917;-77
2023/02/27 21:28:01;;;;;;;;;;;;;;;;;;5069262;28;19926;-76
2023/02/27 21:30:26;;;;;;;;;;;;;;;;;;5065270;28;19913;-76
2023/02/27 21:32:51;;;;;;;;;;;;;;;;;;5064260;28;19913;-77
2023/02/27 21:35:16;;;;;;;;;;;;;;;;;;5063118;28;19971;-76
2023/02/27 21:37:45;;;;;;;;;;;;;;;;;;5061554;28;19928;-76
2023/02/27 21:40:10;;;;;;;;;;;;;;;;;;5060918;28;19920;-76
2023/02/27 21:42:35;;;;;;;;;;;;;;;;;;5055746;28;19913;-77
2023/02/27 21:45:00;;;;;;;;;;;;;;;;;;5064744;28;19920;-79
2023/02/27 21:47:26;;;;;;;;;;;;;;;;;;5062350;28;19912;-77
2023/02/27 21:49:51;;;;;;;;;;;;;;;;;;5063675;28;21230;-78
2023/02/27 21:52:16;;;;;;;;;;;;;;;;;;5067722;28;19913;-78
2023/02/27 21:54:41;;;;;;;;;;;;;;;;;;5062419;28;20011;-78
2023/02/27 21:57:08;;;;;;;;;;;;;;;;;;5070153;28;20356;-78
2023/02/27 21:59:33;;;;;;;;;;;;;;;;;;5067472;28;19912;-78
2023/02/27 22:01:59;;;;;;;;;;;;;;;;;;5066649;28;19912;-77
2023/02/27 22:04:24;;;;;;;;;;;;;;;;;;5066236;28;19919;-77
2023/02/27 22:06:49;;;;;;;;;;;;;;;;;;5070941;28;19924;-76
2023/02/27 22:09:14;;;;;;;;;;;;;;;;;;5070558;28;19921;-77
2023/02/27 22:11:42;;;;;;;;;;;;;;;;;;5066851;28;20399;-75
2023/02/27 22:14:07;;;;;;;;;;;;;;;;;;5065153;28;19924;-76
2023/02/27 22:16:33;;;;;;;;;;;;;;;;;;5070469;28;19917;-76
2023/02/27 22:18:58;;;;;;;;;;;;;;;;;;5071161;28;19920;-77
2023/02/27 22:21:24;;;;;;;;;;;;;;;;;;5069901;28;19912;-78
2023/02/27 22:23:49;;;;;;;;;;;;;;;;;;5072164;28;20368;-77
2023/02/27 22:26:14;;;;;;;;;;;;;;;;;;5072355;28;19920;-76
2023/02/27 22:28:40;;;;;;;;;;;;;;;;;;5062071;28;20027;-76
2023/02/27 22:31:05;;;;;;;;;;;;;;;;;;5066703;28;19913;-76
2023/02/27 22:33:30;;;;;;;;;;;;;;;;;;5065656;28;19939;-78
2023/02/27 22:35:55;;;;;;;;;;;;;;;;;;5073908;28;19912;-77
2023/02/27 22:38:21;;;;;;;;;;;;;;;;;;5069550;28;20322;-77
2023/02/27 22:40:46;;;;;;;;;;;;;;;;;;5067205;28;19917;-76
2023/02/27 22:43:11;;;;;;;;;;;;;;;;;;5060382;28;19951;-77
2023/02/27 22:45:36;;;;;;;;;;;;;;;;;;5061321;28;19912;-77
2023/02/27 22:48:01;;;;;;;;;;;;;;;;;;5068599;28;19916;-78
2023/02/27 22:50:26;;;;;;;;;;;;;;;;;;5067872;28;20141;-78
2023/02/27 22:52:51;;;;;;;;;;;;;;;;;;5063847;28;19923;-78
2023/02/27 22:55:17;;;;;;;;;;;;;;;;;;5071498;28;19956;-78
2023/02/27 22:57:42;;;;;;;;;;;;;;;;;;5063957;28;19920;-77
2023/02/27 23:00:10;;;;;;;;;;;;;;;;;;5073887;28;19913;-78
2023/02/27 23:02:35;;;;;;;;;;;;;;;;;;5080563;28;19960;-77
2023/02/27 23:05:00;;;;;;;;;;;;;;;;;;5066249;28;19913;-77
2023/02/27 23:07:25;;;;;;;;;;;;;;;;;;5068781;28;20388;-77
2023/02/27 23:09:51;;;;;;;;;;;;;;;;;;5073673;28;19938;-77
2023/02/27 23:12:16;;;;;;;;;;;;;;;;;;5067930;28;19916;-77
2023/02/27 23:14:41;;;;;;;;;;;;;;;;;;5071632;28;19926;-77
2023/02/27 23:17:06;;;;;;;;;;;;;;;;;;5066471;28;20026;-77
2023/02/27 23:19:32;;;;;;;;;;;;;;;;;;5073695;28;20334;-77
2023/02/27 23:21:57;;;;;;;;;;;;;;;;;;5066018;28;19916;-77
2023/02/27 23:24:22;;;;;;;;;;;;;;;;;;5071276;28;19912;-77
2023/02/27 23:26:47;;;;;;;;;;;;;;;;;;5069676;28;19999;-78
2023/02/27 23:29:12;;;;;;;;;;;;;;;;;;5072336;28;20035;-77
2023/02/27 23:31:37;;;;;;;;;;;;;;;;;;5065375;28;19916;-78
2023/02/27 23:34:06;;;;;;;;;;;;;;;;;;5076586;28;19916;-78
2023/02/27 23:36:31;;;;;;;;;;;;;;;;;;5068581;28;19959;-78
2023/02/27 23:38:56;;;;;;;;;;;;;;;;;;5065815;28;20388;-78
2023/02/27 23:41:21;;;;;;;;;;;;;;;;;;5069707;28;20427;-79
2023/02/27 23:43:46;;;;;;;;;;;;;;;;;;5066155;28;20112;-78
2023/02/27 23:46:12;;;;;;;;;;;;;;;;;;5072275;28;19919;-77
2023/02/27 23:48:37;;;;;;;;;;;;;;;;;;5063490;28;19917;-78
2023/02/27 23:51:02;;;;;;;;;;;;;;;;;;5071997;28;19958;-77
2023/02/27 23:53:27;;;;;;;;;;;;;;;;;;5064373;28;19913;-77
2023/02/27 23:55:52;;;;;;;;;;;;;;;;;;5062977;28;19934;-78
2023/02/27 23:58:17;;;;;;;;;;;;;;;;;;5072882;28;19985;-77
